OICK  Khoram Abad  Airport

Iran

Add Bookmark
ICAO OICK
IATA KHD
Type Airport
Status Operational
Latitude
33° 26' 7" N
33.435398
Longitude
48° 16' 58" E
48.282902
Local (DST + 5) UTC (GMT + 4)
May 29, 2015 12:28 May 29, 2015 07:58
Sunrise-Sunset Local UTC
Begin Civil Twilight 05:39 01:09
Sunrise 06:07 01:37
Sunset 08:20 15:50
End Civil Twilight 08:49 16:19
VFR
VFR
MVFR
MVFR
IFR
VFR
LIFR
VFR
Unknown
Unavailable

Current Weather

METAR Observed MVFR
OICK 290700Z 00000KT 6000 NSC 33/01 Q1015 Fri, May 29, 2015 @ 07:00 UTC
(58 Minutes ago)
Marginal Visual Flight Rules
Wind Visibility Conditions
Calm 6,003 m
  • No significant weather
Temperatures Readings Precipitation
Current Temp
33°C
91°F
Dewpoint
1°C
34°F
Humidity 13%
Altimeter 29.97" Hg
Sea Level Pressure 1,015 mb
Field Elevation
1,155 m
3,789 ft
None Recorded

Additional weather within a 92.6km radius of OICK

Map ICAO Location
OICJ 67.4km NE (040°)
VFR
VFR
MVFR
MVFR
IFR
VFR
LIFR
VFR
Unknown
Unavailable
-
-

CheckWX.com is intended as a tool to help pilots better visualize weather data. It is not intended as a substitute for an official weather briefing obtained from a Flight Service Station. CheckWX.com does not meet the FAA requirements for an official pre-flight weather briefing. Therefore, it's important that pilots still call and obtain an official FSS pre-flight weather briefing.

© 2007-2015 CheckWX.com
07:58:26 UTC